createdAt,value
2018-11-27T00:02:27.408Z,372.30
2018-11-27T00:04:58.926Z,370.60
2018-11-27T00:07:28.420Z,373.40
2018-11-27T00:09:58.489Z,367.10
2018-11-27T00:25:32.282Z,375.02
2018-11-27T00:28:01.843Z,380.53
2018-11-27T00:30:31.275Z,369.25
2018-11-27T00:33:00.720Z,358.95
2018-11-27T00:35:30.213Z,365.20
2018-11-27T00:37:59.779Z,364.25
2018-11-27T00:40:29.193Z,371.65
2018-11-27T00:42:58.670Z,367.93
2018-11-27T00:45:28.166Z,373.90
2018-11-27T00:47:58.642Z,371.37
2018-11-27T00:50:29.200Z,359.83
2018-11-27T00:52:58.680Z,359.90
2018-11-27T00:55:28.227Z,373.55
2018-11-27T00:57:57.719Z,374.50
2018-11-27T01:00:27.322Z,366.45
2018-11-27T01:02:56.850Z,379.30
2018-11-27T01:05:26.408Z,375.80
2018-11-27T01:07:56.870Z,365.68
2018-11-27T01:10:26.879Z,373.68
2018-11-27T01:12:56.321Z,371.07
2018-11-27T01:15:25.882Z,371.27
2018-11-27T01:17:58.544Z,358.77
2018-11-27T01:20:28.734Z,368.27
2018-11-27T01:22:58.192Z,373.23
2018-11-27T01:25:27.604Z,372.35
2018-11-27T01:27:57.126Z,367.43
2018-11-27T01:30:26.727Z,368.57
2018-11-27T01:32:56.318Z,365.68
2018-11-27T01:35:25.834Z,375.93
2018-11-27T01:37:55.457Z,361.77
2018-11-27T01:40:27.521Z,368.07
2018-11-27T01:42:57.845Z,375.00
2018-11-27T01:45:27.434Z,367.43
2018-11-27T01:47:57.052Z,373.85
2018-11-27T01:50:26.696Z,375.90
2018-11-27T01:52:56.169Z,379.70
2018-11-27T01:55:25.747Z,373.77
2018-11-27T01:57:55.190Z,383.77
2018-11-27T02:00:26.955Z,372.33
2018-11-27T02:02:56.942Z,373.90
2018-11-27T02:05:27.514Z,371.68
2018-11-27T02:07:57.100Z,374.00
2018-11-27T02:10:27.772Z,367.05
2018-11-27T02:13:01.121Z,374.15
2018-11-27T02:15:28.852Z,370.65
2018-11-27T02:17:58.631Z,374.12
2018-11-27T02:20:28.323Z,374.82
2018-11-27T02:22:58.023Z,374.25
2018-11-27T02:25:29.042Z,371.55
2018-11-27T02:27:59.557Z,368.77
2018-11-27T02:30:29.395Z,368.88
2018-11-27T02:32:58.870Z,357.67
2018-11-27T02:35:28.482Z,368.40
2018-11-27T02:37:58.936Z,361.23
2018-11-27T02:40:28.561Z,374.55
2018-11-27T02:43:00.005Z,365.23
2018-11-27T02:45:29.624Z,362.20
2018-11-27T02:48:00.139Z,368.82
2018-11-27T02:50:29.664Z,361.98
2018-11-27T02:53:00.201Z,350.05
2018-11-27T02:55:31.899Z,355.92
2018-11-27T02:58:02.066Z,361.10
2018-11-27T03:00:33.643Z,358.15
2018-11-27T03:03:03.250Z,364.42
2018-11-27T03:05:35.257Z,348.85
2018-11-27T03:08:05.955Z,360.10
2018-11-27T03:10:36.516Z,368.48
2018-11-27T03:13:07.366Z,363.25
2018-11-27T03:15:38.983Z,351.88
2018-11-27T03:18:08.804Z,358.57
2018-11-27T03:20:38.462Z,353.30
2018-11-27T03:23:08.825Z,350.18
2018-11-27T03:25:38.560Z,352.85
2018-11-27T03:28:08.490Z,354.25
2018-11-27T03:30:38.532Z,361.20
2018-11-27T03:33:08.598Z,363.68
2018-11-27T03:35:38.548Z,367.87
2018-11-27T03:38:08.320Z,356.80
2018-11-27T03:40:38.160Z,355.50
2018-11-27T03:43:07.783Z,367.37
2018-11-27T03:45:38.008Z,351.80
2018-11-27T03:48:08.777Z,356.20
2018-11-27T03:50:38.356Z,353.62
2018-11-27T03:53:07.997Z,361.82
2018-11-27T03:55:37.999Z,354.20
2018-11-27T03:58:09.539Z,351.55
2018-11-27T04:00:43.580Z,364.50
2018-11-27T04:03:14.902Z,367.20
2018-11-27T04:05:45.160Z,368.48
2018-11-27T04:08:14.979Z,366.80
2018-11-27T04:10:44.845Z,361.80
2018-11-27T04:13:16.734Z,358.32
2018-11-27T04:15:47.488Z,362.25
2018-11-27T04:18:17.052Z,361.62
2018-11-27T04:20:46.542Z,369.57
2018-11-27T04:23:16.187Z,365.95
2018-11-27T04:38:48.242Z,367.75
2018-11-27T04:41:18.792Z,393.27
2018-11-27T04:43:48.399Z,395.27
2018-11-27T04:46:18.153Z,388.87
2018-11-27T04:48:48.716Z,382.20
2018-11-27T04:51:19.441Z,387.20
2018-11-27T04:53:49.036Z,386.32
2018-11-27T04:56:19.342Z,383.38
2018-11-27T04:58:50.150Z,373.93
2018-11-27T05:01:19.640Z,374.50
2018-11-27T05:03:49.219Z,377.57
2018-11-27T05:06:19.001Z,382.17
2018-11-27T05:08:50.850Z,381.75
2018-11-27T05:11:20.483Z,385.32
2018-11-27T05:13:49.975Z,384.07
2018-11-27T05:16:19.948Z,377.80
2018-11-27T05:18:51.358Z,378.12
2018-11-27T05:21:20.980Z,380.60
2018-11-27T05:23:51.087Z,379.65
2018-11-27T05:26:20.759Z,376.92
2018-11-27T05:28:50.383Z,381.10
2018-11-27T05:31:19.987Z,383.37
2018-11-27T05:33:49.832Z,383.95
2018-11-27T05:36:19.625Z,387.02
2018-11-27T05:38:49.308Z,387.40
2018-11-27T05:41:18.934Z,382.23
2018-11-27T05:43:49.420Z,386.60
2018-11-27T05:46:20.316Z,390.12
2018-11-27T05:48:49.911Z,384.70
2018-11-27T06:04:27.166Z,389.77
2018-11-27T06:06:58.944Z,412.02
2018-11-27T06:09:29.198Z,420.42
2018-11-27T06:11:58.795Z,399.42
2018-11-27T06:14:28.473Z,385.55
2018-11-27T06:16:58.866Z,390.45
2018-11-27T06:19:28.481Z,401.27
2018-11-27T06:21:58.120Z,392.02
2018-11-27T06:24:27.714Z,385.57
2018-11-27T06:26:57.853Z,401.45
2018-11-27T06:29:29.357Z,409.35
2018-11-27T06:31:59.129Z,393.63
2018-11-27T06:34:28.671Z,390.95
2018-11-27T06:37:00.182Z,391.82
2018-11-27T06:39:29.920Z,403.15
2018-11-27T06:41:59.854Z,396.43
2018-11-27T06:44:29.338Z,395.93
2018-11-27T06:46:58.916Z,405.97
2018-11-27T06:49:29.431Z,394.02
2018-11-27T06:51:59.011Z,402.55
2018-11-27T06:54:28.639Z,408.32
2018-11-27T06:56:59.350Z,396.30
2018-11-27T06:59:29.051Z,396.02
2018-11-27T07:01:58.873Z,397.80
2018-11-27T07:04:29.057Z,399.23
2018-11-27T07:06:58.697Z,396.40
2018-11-27T07:09:29.358Z,395.65
2018-11-27T07:11:58.967Z,401.67
2018-11-27T07:14:28.729Z,404.77
2018-11-27T07:16:58.361Z,406.55
2018-11-27T07:19:27.879Z,410.32
2018-11-27T07:21:58.006Z,399.83
2018-11-27T07:24:27.608Z,401.00
2018-11-27T07:26:57.048Z,398.38
2018-11-27T07:29:26.558Z,400.18
2018-11-27T07:31:56.231Z,412.53
2018-11-27T07:34:26.012Z,415.55
2018-11-27T07:36:55.747Z,410.63
2018-11-27T07:39:25.365Z,409.90
2018-11-27T07:41:55.059Z,398.70
2018-11-27T07:44:24.804Z,409.63
2018-11-27T07:46:54.496Z,413.45
2018-11-27T07:49:24.066Z,409.75
2018-11-27T07:51:53.740Z,412.68
2018-11-27T07:54:23.245Z,418.33
2018-11-27T07:56:53.749Z,420.35
2018-11-27T07:59:23.289Z,421.87
2018-11-27T08:01:53.895Z,419.97
2018-11-27T08:04:24.794Z,422.15
2018-11-27T08:06:56.104Z,430.85
2018-11-27T08:09:27.161Z,422.30
2018-11-27T08:11:55.587Z,420.75
2018-11-27T08:14:25.329Z,426.02
2018-11-27T08:16:55.290Z,425.00
2018-11-27T08:19:25.895Z,423.90
2018-11-27T08:21:56.626Z,421.70
2018-11-27T08:24:26.374Z,431.10
2018-11-27T08:27:00.314Z,426.20
2018-11-27T08:29:30.790Z,422.98
2018-11-27T08:32:01.108Z,418.05
2018-11-27T08:34:31.938Z,421.03
2018-11-27T08:37:01.805Z,422.60
2018-11-27T08:39:31.465Z,421.57
2018-11-27T08:42:03.515Z,428.82
2018-11-27T08:44:35.087Z,423.70
2018-11-27T08:47:04.630Z,428.68
2018-11-27T08:49:34.141Z,429.07
2018-11-27T08:52:03.626Z,431.57
2018-11-27T08:54:33.913Z,429.20
2018-11-27T08:57:05.575Z,431.43
2018-11-27T08:59:35.135Z,435.97
2018-11-27T09:02:07.018Z,423.32
2018-11-27T09:04:36.546Z,426.80
2018-11-27T09:07:06.195Z,429.35
2018-11-27T09:09:36.720Z,434.80
2018-11-27T09:12:06.290Z,423.43
2018-11-27T09:14:36.814Z,430.23
2018-11-27T09:17:08.621Z,430.22
2018-11-27T09:19:38.055Z,448.28
2018-11-27T09:22:12.618Z,435.60
2018-11-27T09:24:37.129Z,428.80
2018-11-27T09:27:07.120Z,425.00
2018-11-27T09:29:37.634Z,429.37
2018-11-27T09:32:07.740Z,426.50
2018-11-27T09:34:38.138Z,422.07
2018-11-27T09:37:08.158Z,429.20
2018-11-27T09:39:39.211Z,444.70
2018-11-27T09:42:08.876Z,449.00
2018-11-27T09:44:38.466Z,444.88
2018-11-27T09:47:08.183Z,452.20
2018-11-27T09:49:38.129Z,446.07
2018-11-27T09:52:08.684Z,437.95
2018-11-27T09:54:38.660Z,440.95
2018-11-27T09:57:08.717Z,443.07
2018-11-27T09:59:38.476Z,440.27
2018-11-27T10:02:09.423Z,442.05
2018-11-27T10:04:39.298Z,445.37
2018-11-27T10:07:09.059Z,439.75
2018-11-27T10:09:56.305Z,450.98
2018-11-27T10:12:26.630Z,444.32
2018-11-27T10:14:57.689Z,443.63
2018-11-27T10:17:27.411Z,441.95
2018-11-27T10:19:57.374Z,448.87
2018-11-27T10:22:27.166Z,453.30
2018-11-27T10:24:58.257Z,452.32
2018-11-27T10:27:28.077Z,453.50
2018-11-27T10:29:58.886Z,446.83
2018-11-27T10:32:28.673Z,442.75
2018-11-27T10:34:59.038Z,450.90
2018-11-27T10:37:30.118Z,462.05
2018-11-27T10:39:59.795Z,442.35
2018-11-27T10:42:30.225Z,441.05
2018-11-27T10:45:01.001Z,445.40
2018-11-27T10:47:33.067Z,439.75
2018-11-27T10:50:02.705Z,441.82
2018-11-27T10:52:32.324Z,449.68
2018-11-27T10:55:02.012Z,454.53
2018-11-27T10:57:34.318Z,463.45
2018-11-27T11:00:26.833Z,477.32
2018-11-27T11:04:03.554Z,475.75
2018-11-27T11:06:34.800Z,480.73
2018-11-27T11:09:09.767Z,461.47
2018-11-27T11:11:41.947Z,471.55
2018-11-27T11:14:18.472Z,464.90
2018-11-27T11:16:49.794Z,462.45
2018-11-27T11:19:20.731Z,493.67
2018-11-27T11:21:50.365Z,480.30
2018-11-27T11:24:22.850Z,474.65
2018-11-27T11:26:55.103Z,477.63
2018-11-27T11:29:28.575Z,469.62
2018-11-27T11:32:01.445Z,475.55
2018-11-27T11:34:32.647Z,472.55
2018-11-27T11:37:04.330Z,482.20
2018-11-27T11:39:35.650Z,480.10
2018-11-27T11:42:05.476Z,470.40
2018-11-27T11:44:37.167Z,470.38
2018-11-27T11:47:07.086Z,466.82
2018-11-27T11:49:39.209Z,464.15
2018-11-27T11:52:11.075Z,476.20
2018-11-27T11:54:41.647Z,469.85
2018-11-27T11:57:13.129Z,480.45
2018-11-27T11:59:44.076Z,480.40
2018-11-27T12:02:15.838Z,493.90
2018-11-27T12:04:47.167Z,492.48
2018-11-27T12:07:18.046Z,497.13
2018-11-27T12:09:49.847Z,499.90
2018-11-27T12:12:19.449Z,496.67
2018-11-27T12:14:48.933Z,503.18
2018-11-27T12:17:20.320Z,497.50
2018-11-27T12:19:50.658Z,494.60
2018-11-27T12:23:43.840Z,489.77
2018-11-27T12:26:13.558Z,489.43
2018-11-27T12:28:44.755Z,485.50
2018-11-27T12:31:13.948Z,488.75
2018-11-27T12:33:44.883Z,482.80
2018-11-27T12:36:16.512Z,493.07
2018-11-27T12:38:46.298Z,475.05
2018-11-27T12:41:15.891Z,472.70
2018-11-27T12:43:46.666Z,481.23
2018-11-27T12:46:16.228Z,469.65
2018-11-27T12:48:45.901Z,475.42
2018-11-27T12:51:17.124Z,476.45
2018-11-27T12:53:46.949Z,483.23
2018-11-27T12:56:17.849Z,485.25
2018-11-27T12:58:55.792Z,473.05
2018-11-27T13:01:27.944Z,495.05
2018-11-27T13:03:59.162Z,482.90
2018-11-27T13:06:30.375Z,477.90
2018-11-27T13:09:00.093Z,478.45
2018-11-27T13:11:30.006Z,485.78
2018-11-27T13:14:02.527Z,481.45
2018-11-27T13:16:34.909Z,477.37
2018-11-27T13:19:07.578Z,468.60
2018-11-27T13:21:39.237Z,476.00
2018-11-27T13:24:10.674Z,472.30
2018-11-27T13:26:42.914Z,464.30
2018-11-27T13:29:16.571Z,467.63
2018-11-27T13:31:46.171Z,473.93
2018-11-27T13:34:19.173Z,468.20
2018-11-27T13:36:51.829Z,475.68
2018-11-27T13:39:32.498Z,474.98
2018-11-27T13:42:05.481Z,468.15
2018-11-27T13:44:37.850Z,468.95
2018-11-27T13:47:07.512Z,474.75
2018-11-27T13:49:38.418Z,466.20
2018-11-27T13:52:10.439Z,473.32
2018-11-27T13:54:41.463Z,475.72
2018-11-27T13:57:13.289Z,474.80
2018-11-27T13:59:45.265Z,472.27
2018-11-27T14:02:16.874Z,483.20
2018-11-27T14:04:46.464Z,476.30
2018-11-27T14:07:16.148Z,481.47
2018-11-27T14:09:46.411Z,480.83
2018-11-27T14:12:19.505Z,487.05
2018-11-27T14:14:49.430Z,488.30
2018-11-27T14:17:19.081Z,497.80
2018-11-27T14:19:49.253Z,494.90
2018-11-27T14:22:18.832Z,491.03
2018-11-27T14:24:50.630Z,501.77
2018-11-27T14:27:20.504Z,497.87
2018-11-27T14:29:51.780Z,498.17
2018-11-27T14:32:22.400Z,513.45
2018-11-27T14:34:53.019Z,512.83
2018-11-27T14:37:22.829Z,519.00
2018-11-27T14:39:52.741Z,527.52
2018-11-27T14:42:22.549Z,518.23
2018-11-27T14:44:52.298Z,560.83
2018-11-27T14:47:24.854Z,537.40
2018-11-27T14:49:54.427Z,534.52
2018-11-27T15:05:32.160Z,521.42
2018-11-27T15:08:01.991Z,529.15
2018-11-27T15:10:32.844Z,530.10
2018-11-27T15:13:02.796Z,527.70
2018-11-27T15:15:32.797Z,529.30
2018-11-27T15:18:02.422Z,533.38
2018-11-27T15:20:32.701Z,529.70
2018-11-27T15:23:02.328Z,535.23
2018-11-27T15:25:32.671Z,531.15
2018-11-27T15:28:02.323Z,520.38
2018-11-27T15:30:34.453Z,517.00
2018-11-27T15:33:04.161Z,517.63
2018-11-27T15:35:35.239Z,523.52
2018-11-27T15:38:06.403Z,517.48
2018-11-27T15:40:38.263Z,511.75
2018-11-27T15:43:07.993Z,511.73
2018-11-27T15:45:37.600Z,514.50
2018-11-27T15:48:10.119Z,510.73
2018-11-27T15:50:40.013Z,508.75
2018-11-27T15:53:09.665Z,506.17
2018-11-27T15:55:40.035Z,507.05
2018-11-27T15:58:11.896Z,503.00
2018-11-27T16:00:42.640Z,508.85
2018-11-27T16:03:13.028Z,501.73
2018-11-27T16:05:44.334Z,501.00
2018-11-27T16:08:14.650Z,498.58
2018-11-27T16:10:44.224Z,504.62
2018-11-27T16:13:13.729Z,495.55
2018-11-27T16:15:43.407Z,497.40
2018-11-27T16:18:13.445Z,499.32
2018-11-27T16:20:43.024Z,510.57
2018-11-27T16:23:14.542Z,519.20
2018-11-27T16:25:44.213Z,516.40
2018-11-27T16:28:13.682Z,497.37
2018-11-27T16:30:43.208Z,494.28
2018-11-27T16:33:14.345Z,491.40
2018-11-27T16:35:43.976Z,487.60
2018-11-27T16:38:15.819Z,485.80
2018-11-27T16:40:45.652Z,494.17
2018-11-27T16:43:15.151Z,488.90
2018-11-27T16:45:45.733Z,493.48
2018-11-27T16:48:15.299Z,491.57
2018-11-27T16:50:45.443Z,492.45
2018-11-27T16:53:15.664Z,488.95
2018-11-27T16:55:45.700Z,495.88
2018-11-27T16:58:16.274Z,495.50
2018-11-27T17:00:45.798Z,497.13
2018-11-27T17:03:16.915Z,497.85
2018-11-27T17:05:46.359Z,497.95
2018-11-27T17:08:16.137Z,496.50
2018-11-27T17:10:46.251Z,501.02
2018-11-27T17:13:16.532Z,495.10
2018-11-27T17:15:46.165Z,494.10
2018-11-27T17:22:13.655Z,491.90
2018-11-27T17:24:43.149Z,496.15
2018-11-27T17:27:12.721Z,495.77
2018-11-27T17:29:42.243Z,497.70
2018-11-27T17:32:11.735Z,489.05
2018-11-27T17:34:41.964Z,489.57
2018-11-27T17:37:11.498Z,484.93
2018-11-27T17:39:41.076Z,492.72
2018-11-27T17:42:10.569Z,487.92
2018-11-27T17:44:40.999Z,484.17
2018-11-27T17:47:10.479Z,486.88
2018-11-27T17:49:39.964Z,495.82
2018-11-27T17:52:09.475Z,493.35
2018-11-27T17:54:39.026Z,496.00
2018-11-27T17:57:08.589Z,491.68
2018-11-27T17:59:38.096Z,494.10
2018-11-27T18:02:07.735Z,485.65
2018-11-27T18:04:37.500Z,484.98
2018-11-27T18:07:07.789Z,484.75
2018-11-27T18:09:37.547Z,485.93
2018-11-27T18:12:07.246Z,484.52
2018-11-27T18:14:37.754Z,485.63
2018-11-27T18:17:07.561Z,482.32
2018-11-27T18:19:38.637Z,484.05
2018-11-27T18:22:09.389Z,482.08
2018-11-27T18:24:40.183Z,483.02
2018-11-27T18:40:15.062Z,478.12
2018-11-27T18:42:45.390Z,489.45
2018-11-27T18:45:27.300Z,479.62
2018-11-27T19:01:02.927Z,483.83
2018-11-27T19:03:33.435Z,485.52
2018-11-27T19:06:02.912Z,478.23
2018-11-27T19:08:32.969Z,478.45
2018-11-27T19:11:02.409Z,466.95
2018-11-27T19:13:32.948Z,456.23
2018-11-27T19:16:02.421Z,447.65
2018-11-27T19:18:32.611Z,451.52
2018-11-27T19:21:02.130Z,455.70
2018-11-27T19:23:32.472Z,449.77
2018-11-27T19:26:01.954Z,450.57
2018-11-27T19:28:32.143Z,450.75
2018-11-27T19:31:01.619Z,451.73
2018-11-27T19:33:31.068Z,451.57
2018-11-27T19:36:00.663Z,454.90
2018-11-27T19:38:32.152Z,454.10
2018-11-27T19:41:01.738Z,451.57
2018-11-27T19:43:31.302Z,453.23
2018-11-27T19:46:00.898Z,449.58
2018-11-27T19:48:30.461Z,448.57
2018-11-27T19:51:00.003Z,451.48
2018-11-27T19:53:30.469Z,449.82
2018-11-27T19:55:59.961Z,451.63
2018-11-27T19:58:29.517Z,460.07
2018-11-27T20:01:01.049Z,453.48
2018-11-27T20:03:30.540Z,452.17
2018-11-27T20:06:00.168Z,450.55
2018-11-27T20:08:29.601Z,454.45
2018-11-27T20:10:59.085Z,452.23
2018-11-27T20:13:30.544Z,447.43
2018-11-27T20:16:00.013Z,453.95
2018-11-27T20:18:29.513Z,452.40
2018-11-27T20:20:59.049Z,455.85
2018-11-27T20:23:28.634Z,456.07
2018-11-27T20:39:00.787Z,461.75
2018-11-27T20:41:31.050Z,472.45
2018-11-27T20:44:00.585Z,471.33
2018-11-27T20:46:30.096Z,465.05
2018-11-27T20:49:00.591Z,454.90
2018-11-27T20:51:30.173Z,452.93
2018-11-27T21:07:04.208Z,452.45
2018-11-27T21:09:35.998Z,465.23
2018-11-27T21:25:17.996Z,461.73
2018-11-27T21:27:56.736Z,465.28
2018-11-27T21:30:26.420Z,458.38
2018-11-27T21:32:56.142Z,410.43
2018-11-27T21:35:25.591Z,393.60
2018-11-27T21:37:55.038Z,394.23
2018-11-27T21:40:24.521Z,388.18
2018-11-27T21:42:54.381Z,397.07
2018-11-27T21:45:28.325Z,393.37
2018-11-27T21:47:58.776Z,388.98
2018-11-27T21:50:34.538Z,379.02
2018-11-27T21:53:04.077Z,393.75
2018-11-27T21:55:36.868Z,383.17
2018-11-27T21:58:06.722Z,391.23
2018-11-27T22:00:41.562Z,371.95
2018-11-27T22:03:12.263Z,377.57
2018-11-27T22:05:43.496Z,372.17
2018-11-27T22:08:13.002Z,368.97
2018-11-27T22:10:43.578Z,383.98
2018-11-27T22:13:14.494Z,390.35
2018-11-27T22:15:45.478Z,378.73
2018-11-27T22:18:15.163Z,384.23
2018-11-27T22:20:46.239Z,382.92
2018-11-27T22:23:15.854Z,387.40
2018-11-27T22:25:47.059Z,385.50
2018-11-27T22:28:17.143Z,384.57
2018-11-27T22:30:47.626Z,381.03
2018-11-27T22:33:17.223Z,372.70
2018-11-27T22:35:46.748Z,367.15
2018-11-27T22:38:16.266Z,377.48
2018-11-27T22:40:47.753Z,376.35
2018-11-27T22:43:18.333Z,362.80
2018-11-27T22:45:48.809Z,360.88
2018-11-27T22:48:20.216Z,372.27
2018-11-27T22:50:49.619Z,367.23
2018-11-27T22:53:19.644Z,366.57
2018-11-27T22:55:49.139Z,372.60
2018-11-27T22:58:18.686Z,370.12
2018-11-27T23:00:50.729Z,372.37
2018-11-27T23:03:24.790Z,368.90
2018-11-27T23:05:56.347Z,364.27
2018-11-27T23:08:27.438Z,365.52
2018-11-27T23:10:57.014Z,375.25
2018-11-27T23:13:26.620Z,371.32
2018-11-27T23:15:56.370Z,366.70
2018-11-27T23:18:26.083Z,367.50
2018-11-27T23:20:58.551Z,376.90
2018-11-27T23:23:28.059Z,376.60
2018-11-27T23:25:57.617Z,369.75
2018-11-27T23:28:27.276Z,372.75
2018-11-27T23:30:58.906Z,372.85
2018-11-27T23:33:30.682Z,371.50
2018-11-27T23:36:01.314Z,371.00
2018-11-27T23:38:30.856Z,365.10
2018-11-27T23:41:01.688Z,374.48
2018-11-27T23:43:31.833Z,366.95
2018-11-27T23:46:01.491Z,365.27
